sensor_id;sensor_type;location;lat;lon;timestamp;pressure;altitude;pressure_sealevel;temperature;humidity
45050;BME280;61798;48.048;-1.928;2023-04-08T00:00:49;101301.75;;;4.52;100.00
45050;BME280;61798;48.048;-1.928;2023-04-08T00:02:56;101331.84;;;4.83;100.00
45050;BME280;61798;48.048;-1.928;2023-04-08T00:05:02;101299.78;;;4.54;100.00
45050;BME280;61798;48.048;-1.928;2023-04-08T00:07:08;101330.97;;;4.72;100.00
45050;BME280;61798;48.048;-1.928;2023-04-08T00:09:14;101332.34;;;4.57;100.00
45050;BME280;61798;48.048;-1.928;2023-04-08T00:11:20;101353.63;;;4.86;100.00
45050;BME280;61798;48.048;-1.928;2023-04-08T00:13:26;101331.50;;;4.66;100.00
45050;BME280;61798;48.048;-1.928;2023-04-08T00:15:32;101349.38;;;4.54;100.00
45050;BME280;61798;48.048;-1.928;2023-04-08T00:17:38;101354.56;;;4.55;100.00
45050;BME280;61798;48.048;-1.928;2023-04-08T00:19:44;101339.88;;;4.51;100.00
45050;BME280;61798;48.048;-1.928;2023-04-08T00:21:50;101354.09;;;4.50;100.00
45050;BME280;61798;48.048;-1.928;2023-04-08T00:23:57;101334.09;;;4.36;100.00
45050;BME280;61798;48.048;-1.928;2023-04-08T00:26:03;101350.53;;;4.61;100.00
45050;BME280;61798;48.048;-1.928;2023-04-08T00:28:09;101341.56;;;4.52;100.00
45050;BME280;61798;48.048;-1.928;2023-04-08T00:30:15;101340.16;;;4.48;100.00
45050;BME280;61798;48.048;-1.928;2023-04-08T00:32:21;101361.53;;;4.57;100.00
45050;BME280;61798;48.048;-1.928;2023-04-08T00:34:27;101345.19;;;4.51;100.00
45050;BME280;61798;48.048;-1.928;2023-04-08T00:36:33;101355.22;;;4.48;100.00
45050;BME280;61798;48.048;-1.928;2023-04-08T00:38:40;101336.47;;;4.39;100.00
45050;BME280;61798;48.048;-1.928;2023-04-08T00:40:46;101347.94;;;4.40;100.00
45050;BME280;61798;48.048;-1.928;2023-04-08T00:42:52;101343.91;;;4.46;100.00
45050;BME280;61798;48.048;-1.928;2023-04-08T00:44:58;101296.75;;;4.18;100.00
45050;BME280;61798;48.048;-1.928;2023-04-08T00:47:04;101339.28;;;4.38;100.00
45050;BME280;61798;48.048;-1.928;2023-04-08T00:49:10;101346.31;;;4.17;100.00
45050;BME280;61798;48.048;-1.928;2023-04-08T00:51:18;101296.88;;;3.85;100.00
45050;BME280;61798;48.048;-1.928;2023-04-08T00:53:24;101301.03;;;3.77;100.00
45050;BME280;61798;48.048;-1.928;2023-04-08T00:55:30;101348.53;;;3.90;100.00
45050;BME280;61798;48.048;-1.928;2023-04-08T00:57:36;101318.03;;;3.75;100.00
45050;BME280;61798;48.048;-1.928;2023-04-08T00:59:42;101313.38;;;3.67;100.00
45050;BME280;61798;48.048;-1.928;2023-04-08T01:02:01;101301.81;;;3.68;100.00
45050;BME280;61798;48.048;-1.928;2023-04-08T01:04:43;101356.09;;;3.95;100.00
45050;BME280;61798;48.048;-1.928;2023-04-08T01:06:56;101351.59;;;3.86;100.00
45050;BME280;61798;48.048;-1.928;2023-04-08T01:09:04;101351.53;;;3.76;100.00
45050;BME280;61798;48.048;-1.928;2023-04-08T01:11:12;101320.56;;;3.55;100.00
45050;BME280;61798;48.048;-1.928;2023-04-08T01:13:21;101329.44;;;3.65;100.00
45050;BME280;61798;48.048;-1.928;2023-04-08T01:15:29;101342.94;;;3.62;100.00
45050;BME280;61798;48.048;-1.928;2023-04-08T01:17:36;101305.72;;;3.42;100.00
45050;BME280;61798;48.048;-1.928;2023-04-08T01:19:43;101318.50;;;3.37;100.00
45050;BME280;61798;48.048;-1.928;2023-04-08T01:21:51;101337.56;;;3.52;100.00
45050;BME280;61798;48.048;-1.928;2023-04-08T01:24:23;101329.56;;;3.42;100.00
45050;BME280;61798;48.048;-1.928;2023-04-08T01:26:31;101341.31;;;3.49;100.00
45050;BME280;61798;48.048;-1.928;2023-04-08T01:28:38;101328.63;;;3.32;100.00
45050;BME280;61798;48.048;-1.928;2023-04-08T01:30:46;101340.22;;;3.52;100.00
45050;BME280;61798;48.048;-1.928;2023-04-08T01:32:54;101360.06;;;3.58;100.00
45050;BME280;61798;48.048;-1.928;2023-04-08T01:35:01;101366.59;;;3.54;100.00
45050;BME280;61798;48.048;-1.928;2023-04-08T01:37:07;101362.53;;;3.49;100.00
45050;BME280;61798;48.048;-1.928;2023-04-08T01:39:15;101339.16;;;3.43;100.00
45050;BME280;61798;48.048;-1.928;2023-04-08T01:41:23;101348.28;;;3.51;100.00
45050;BME280;61798;48.048;-1.928;2023-04-08T01:43:29;101335.03;;;3.29;100.00
45050;BME280;61798;48.048;-1.928;2023-04-08T01:45:37;101355.31;;;3.40;100.00
45050;BME280;61798;48.048;-1.928;2023-04-08T01:47:44;101355.84;;;3.34;100.00
45050;BME280;61798;48.048;-1.928;2023-04-08T01:49:52;101348.38;;;3.27;100.00
45050;BME280;61798;48.048;-1.928;2023-04-08T01:51:59;101314.50;;;3.10;100.00
45050;BME280;61798;48.048;-1.928;2023-04-08T01:54:06;101358.97;;;3.27;100.00
45050;BME280;61798;48.048;-1.928;2023-04-08T01:56:13;101321.66;;;2.98;100.00
45050;BME280;61798;48.048;-1.928;2023-04-08T01:58:21;101319.84;;;2.98;100.00
45050;BME280;61798;48.048;-1.928;2023-04-08T02:00:29;101350.81;;;3.19;100.00
45050;BME280;61798;48.048;-1.928;2023-04-08T02:02:37;101300.84;;;2.93;100.00
45050;BME280;61798;48.048;-1.928;2023-04-08T02:04:43;101321.28;;;3.02;100.00
45050;BME280;61798;48.048;-1.928;2023-04-08T02:06:49;101355.78;;;3.12;100.00
45050;BME280;61798;48.048;-1.928;2023-04-08T02:08:55;101311.44;;;2.93;100.00
45050;BME280;61798;48.048;-1.928;2023-04-08T02:11:02;101319.91;;;2.87;100.00
45050;BME280;61798;48.048;-1.928;2023-04-08T02:13:08;101342.50;;;3.24;100.00
45050;BME280;61798;48.048;-1.928;2023-04-08T02:15:15;101355.00;;;3.33;100.00
45050;BME280;61798;48.048;-1.928;2023-04-08T02:17:30;101362.81;;;3.35;100.00
45050;BME280;61798;48.048;-1.928;2023-04-08T02:19:45;101330.91;;;3.03;100.00
45050;BME280;61798;48.048;-1.928;2023-04-08T02:21:57;101306.84;;;2.95;100.00
45050;BME280;61798;48.048;-1.928;2023-04-08T02:24:06;101345.41;;;3.21;100.00
45050;BME280;61798;48.048;-1.928;2023-04-08T02:26:13;101339.22;;;2.99;100.00
45050;BME280;61798;48.048;-1.928;2023-04-08T02:28:21;101353.50;;;3.08;100.00
45050;BME280;61798;48.048;-1.928;2023-04-08T02:30:28;101372.06;;;3.08;100.00
45050;BME280;61798;48.048;-1.928;2023-04-08T02:32:36;101330.84;;;2.82;100.00
45050;BME280;61798;48.048;-1.928;2023-04-08T02:34:43;101370.56;;;3.15;100.00
45050;BME280;61798;48.048;-1.928;2023-04-08T02:36:50;101382.16;;;3.14;100.00
45050;BME280;61798;48.048;-1.928;2023-04-08T02:38:56;101336.00;;;2.83;100.00
45050;BME280;61798;48.048;-1.928;2023-04-08T02:41:02;101342.50;;;2.79;100.00
45050;BME280;61798;48.048;-1.928;2023-04-08T02:43:08;101370.91;;;2.89;100.00
45050;BME280;61798;48.048;-1.928;2023-04-08T02:45:14;101372.84;;;2.75;100.00
45050;BME280;61798;48.048;-1.928;2023-04-08T02:47:20;101385.25;;;2.74;100.00
45050;BME280;61798;48.048;-1.928;2023-04-08T02:49:26;101370.09;;;2.53;100.00
45050;BME280;61798;48.048;-1.928;2023-04-08T02:51:32;101355.69;;;2.35;100.00
45050;BME280;61798;48.048;-1.928;2023-04-08T02:53:38;101372.88;;;2.40;100.00
45050;BME280;61798;48.048;-1.928;2023-04-08T02:55:44;101372.88;;;2.40;100.00
45050;BME280;61798;48.048;-1.928;2023-04-08T02:57:50;101368.06;;;2.34;100.00
45050;BME280;61798;48.048;-1.928;2023-04-08T02:59:56;101386.09;;;2.52;100.00
45050;BME280;61798;48.048;-1.928;2023-04-08T03:02:02;101378.88;;;2.54;100.00
45050;BME280;61798;48.048;-1.928;2023-04-08T03:04:08;101395.34;;;2.81;100.00
45050;BME280;61798;48.048;-1.928;2023-04-08T03:06:15;101346.53;;;2.50;100.00
45050;BME280;61798;48.048;-1.928;2023-04-08T03:08:21;101352.53;;;2.52;100.00
45050;BME280;61798;48.048;-1.928;2023-04-08T03:10:27;101345.94;;;2.47;100.00
45050;BME280;61798;48.048;-1.928;2023-04-08T03:12:33;101358.44;;;2.45;100.00
45050;BME280;61798;48.048;-1.928;2023-04-08T03:14:39;101348.69;;;2.45;100.00
45050;BME280;61798;48.048;-1.928;2023-04-08T03:16:45;101363.25;;;2.39;100.00
45050;BME280;61798;48.048;-1.928;2023-04-08T03:18:51;101389.69;;;2.51;100.00
45050;BME280;61798;48.048;-1.928;2023-04-08T03:20:57;101379.59;;;2.45;100.00
45050;BME280;61798;48.048;-1.928;2023-04-08T03:23:03;101378.88;;;2.31;100.00
45050;BME280;61798;48.048;-1.928;2023-04-08T03:25:09;101408.59;;;2.46;100.00
45050;BME280;61798;48.048;-1.928;2023-04-08T03:27:16;101378.16;;;2.17;100.00
45050;BME280;61798;48.048;-1.928;2023-04-08T03:29:22;101402.31;;;2.36;100.00
45050;BME280;61798;48.048;-1.928;2023-04-08T03:31:28;101391.88;;;2.46;100.00
45050;BME280;61798;48.048;-1.928;2023-04-08T03:33:34;101410.63;;;2.77;100.00
45050;BME280;61798;48.048;-1.928;2023-04-08T03:35:40;101379.25;;;2.61;100.00
45050;BME280;61798;48.048;-1.928;2023-04-08T03:37:46;101413.50;;;2.85;100.00
45050;BME280;61798;48.048;-1.928;2023-04-08T03:39:53;101422.06;;;2.78;100.00
45050;BME280;61798;48.048;-1.928;2023-04-08T03:41:59;101419.44;;;2.66;100.00
45050;BME280;61798;48.048;-1.928;2023-04-08T03:44:05;101391.88;;;2.34;100.00
45050;BME280;61798;48.048;-1.928;2023-04-08T03:46:11;101417.59;;;2.43;100.00
45050;BME280;61798;48.048;-1.928;2023-04-08T03:48:17;101421.22;;;2.42;100.00
45050;BME280;61798;48.048;-1.928;2023-04-08T03:50:23;101419.53;;;2.30;100.00
45050;BME280;61798;48.048;-1.928;2023-04-08T03:52:29;101431.66;;;2.21;100.00
45050;BME280;61798;48.048;-1.928;2023-04-08T03:54:35;101401.94;;;2.06;100.00
45050;BME280;61798;48.048;-1.928;2023-04-08T03:56:41;101413.47;;;2.05;100.00
45050;BME280;61798;48.048;-1.928;2023-04-08T03:58:47;101414.91;;;1.97;100.00
45050;BME280;61798;48.048;-1.928;2023-04-08T04:00:53;101367.84;;;1.66;100.00
45050;BME280;61798;48.048;-1.928;2023-04-08T04:02:59;101398.88;;;1.87;100.00
45050;BME280;61798;48.048;-1.928;2023-04-08T04:05:06;101419.94;;;2.00;100.00
45050;BME280;61798;48.048;-1.928;2023-04-08T04:07:12;101388.88;;;1.79;100.00
45050;BME280;61798;48.048;-1.928;2023-04-08T04:09:18;101431.75;;;2.08;100.00
45050;BME280;61798;48.048;-1.928;2023-04-08T04:11:24;101432.06;;;2.03;100.00
45050;BME280;61798;48.048;-1.928;2023-04-08T04:13:31;101402.25;;;1.89;100.00
45050;BME280;61798;48.048;-1.928;2023-04-08T04:15:39;101429.69;;;2.00;100.00
45050;BME280;61798;48.048;-1.928;2023-04-08T04:17:48;101432.56;;;1.97;100.00
45050;BME280;61798;48.048;-1.928;2023-04-08T04:19:55;101423.53;;;1.99;100.00
45050;BME280;61798;48.048;-1.928;2023-04-08T04:22:01;101412.66;;;1.79;100.00
45050;BME280;61798;48.048;-1.928;2023-04-08T04:24:07;101445.78;;;1.97;100.00
45050;BME280;61798;48.048;-1.928;2023-04-08T04:26:13;101434.53;;;1.70;100.00
45050;BME280;61798;48.048;-1.928;2023-04-08T04:28:19;101434.44;;;1.47;100.00
45050;BME280;61798;48.048;-1.928;2023-04-08T04:30:25;101447.06;;;1.30;100.00
45050;BME280;61798;48.048;-1.928;2023-04-08T04:32:31;101412.72;;;1.05;100.00
45050;BME280;61798;48.048;-1.928;2023-04-08T04:34:37;101427.66;;;1.18;100.00
45050;BME280;61798;48.048;-1.928;2023-04-08T04:36:43;101424.09;;;1.19;100.00
45050;BME280;61798;48.048;-1.928;2023-04-08T04:38:50;101424.69;;;1.23;100.00
45050;BME280;61798;48.048;-1.928;2023-04-08T04:40:56;101447.91;;;1.31;100.00
45050;BME280;61798;48.048;-1.928;2023-04-08T04:43:04;101443.56;;;1.30;100.00
45050;BME280;61798;48.048;-1.928;2023-04-08T04:45:10;101423.38;;;1.04;100.00
45050;BME280;61798;48.048;-1.928;2023-04-08T04:47:16;101408.44;;;0.91;100.00
45050;BME280;61798;48.048;-1.928;2023-04-08T04:49:23;101404.81;;;0.92;100.00
45050;BME280;61798;48.048;-1.928;2023-04-08T04:51:32;101425.91;;;1.05;100.00
45050;BME280;61798;48.048;-1.928;2023-04-08T04:53:38;101435.56;;;1.31;100.00
45050;BME280;61798;48.048;-1.928;2023-04-08T04:55:44;101438.09;;;1.20;100.00
45050;BME280;61798;48.048;-1.928;2023-04-08T04:57:50;101423.66;;;1.12;100.00
45050;BME280;61798;48.048;-1.928;2023-04-08T04:59:56;101438.84;;;1.22;100.00
45050;BME280;61798;48.048;-1.928;2023-04-08T05:02:02;101431.84;;;1.34;100.00
45050;BME280;61798;48.048;-1.928;2023-04-08T05:04:08;101406.75;;;0.90;100.00
45050;BME280;61798;48.048;-1.928;2023-04-08T05:06:14;101441.91;;;1.15;100.00
45050;BME280;61798;48.048;-1.928;2023-04-08T05:08:21;101451.31;;;1.20;100.00
45050;BME280;61798;48.048;-1.928;2023-04-08T05:10:27;101432.13;;;1.04;100.00
45050;BME280;61798;48.048;-1.928;2023-04-08T05:12:33;101457.56;;;1.19;100.00
45050;BME280;61798;48.048;-1.928;2023-04-08T05:14:39;101426.97;;;1.03;100.00
45050;BME280;61798;48.048;-1.928;2023-04-08T05:16:46;101455.63;;;1.21;100.00
45050;BME280;61798;48.048;-1.928;2023-04-08T05:18:53;101423.81;;;0.98;100.00
45050;BME280;61798;48.048;-1.928;2023-04-08T05:20:59;101449.75;;;1.04;100.00
45050;BME280;61798;48.048;-1.928;2023-04-08T05:23:05;101431.03;;;0.82;100.00
45050;BME280;61798;48.048;-1.928;2023-04-08T05:25:12;101445.38;;;0.91;100.00
45050;BME280;61798;48.048;-1.928;2023-04-08T05:27:18;101445.56;;;0.88;100.00
45050;BME280;61798;48.048;-1.928;2023-04-08T05:29:24;101443.59;;;0.79;100.00
45050;BME280;61798;48.048;-1.928;2023-04-08T05:31:30;101456.66;;;0.93;100.00
45050;BME280;61798;48.048;-1.928;2023-04-08T05:33:36;101452.03;;;0.84;100.00
45050;BME280;61798;48.048;-1.928;2023-04-08T05:35:42;101458.03;;;0.86;100.00
45050;BME280;61798;48.048;-1.928;2023-04-08T05:37:48;101468.47;;;1.01;100.00
45050;BME280;61798;48.048;-1.928;2023-04-08T05:39:54;101482.28;;;1.04;100.00
45050;BME280;61798;48.048;-1.928;2023-04-08T05:42:00;101466.28;;;0.94;100.00
45050;BME280;61798;48.048;-1.928;2023-04-08T05:44:06;101487.69;;;1.41;100.00
45050;BME280;61798;48.048;-1.928;2023-04-08T05:46:12;101460.00;;;1.09;100.00
45050;BME280;61798;48.048;-1.928;2023-04-08T05:48:18;101469.63;;;1.10;100.00
45050;BME280;61798;48.048;-1.928;2023-04-08T05:50:25;101472.03;;;1.00;100.00
45050;BME280;61798;48.048;-1.928;2023-04-08T05:52:31;101474.44;;;1.16;100.00
45050;BME280;61798;48.048;-1.928;2023-04-08T05:54:37;101485.06;;;1.65;100.00
45050;BME280;61798;48.048;-1.928;2023-04-08T05:56:43;101477.75;;;1.44;100.00
45050;BME280;61798;48.048;-1.928;2023-04-08T05:58:51;101502.16;;;1.73;100.00
45050;BME280;61798;48.048;-1.928;2023-04-08T06:00:57;101512.34;;;1.66;100.00
45050;BME280;61798;48.048;-1.928;2023-04-08T06:03:03;101500.16;;;1.88;100.00
45050;BME280;61798;48.048;-1.928;2023-04-08T06:05:09;101512.47;;;2.00;100.00
45050;BME280;61798;48.048;-1.928;2023-04-08T06:07:15;101497.97;;;2.06;100.00
45050;BME280;61798;48.048;-1.928;2023-04-08T06:09:21;101517.81;;;2.12;100.00
45050;BME280;61798;48.048;-1.928;2023-04-08T06:11:27;101505.78;;;2.08;100.00
45050;BME280;61798;48.048;-1.928;2023-04-08T06:13:34;101491.19;;;1.90;100.00
45050;BME280;61798;48.048;-1.928;2023-04-08T06:15:42;101489.44;;;2.03;100.00
45050;BME280;61798;48.048;-1.928;2023-04-08T06:17:49;101523.75;;;2.27;100.00
45050;BME280;61798;48.048;-1.928;2023-04-08T06:19:56;101507.09;;;2.50;100.00
45050;BME280;61798;48.048;-1.928;2023-04-08T06:22:03;101515.03;;;2.50;100.00
45050;BME280;61798;48.048;-1.928;2023-04-08T06:24:11;101473.97;;;2.21;100.00
45050;BME280;61798;48.048;-1.928;2023-04-08T06:26:18;101513.22;;;2.39;100.00
45050;BME280;61798;48.048;-1.928;2023-04-08T06:28:25;101518.78;;;2.59;100.00
45050;BME280;61798;48.048;-1.928;2023-04-08T06:30:32;101494.34;;;2.55;100.00
45050;BME280;61798;48.048;-1.928;2023-04-08T06:32:40;101518.56;;;2.73;100.00
45050;BME280;61798;48.048;-1.928;2023-04-08T06:34:48;101536.16;;;2.86;100.00
45050;BME280;61798;48.048;-1.928;2023-04-08T06:36:55;101510.50;;;2.87;100.00
45050;BME280;61798;48.048;-1.928;2023-04-08T06:39:01;101538.31;;;3.04;100.00
45050;BME280;61798;48.048;-1.928;2023-04-08T06:41:07;101550.94;;;3.23;100.00
45050;BME280;61798;48.048;-1.928;2023-04-08T06:43:13;101486.31;;;2.91;100.00
45050;BME280;61798;48.048;-1.928;2023-04-08T06:45:20;101514.47;;;3.04;100.00
45050;BME280;61798;48.048;-1.928;2023-04-08T06:47:27;101531.94;;;3.06;100.00
45050;BME280;61798;48.048;-1.928;2023-04-08T06:49:34;101512.03;;;3.24;100.00
45050;BME280;61798;48.048;-1.928;2023-04-08T06:51:43;101549.34;;;3.44;100.00
45050;BME280;61798;48.048;-1.928;2023-04-08T06:53:51;101548.41;;;3.45;100.00
45050;BME280;61798;48.048;-1.928;2023-04-08T06:55:57;101524.22;;;3.38;100.00
45050;BME280;61798;48.048;-1.928;2023-04-08T06:58:04;101543.91;;;3.57;100.00
45050;BME280;61798;48.048;-1.928;2023-04-08T07:00:10;101547.75;;;3.64;100.00
45050;BME280;61798;48.048;-1.928;2023-04-08T07:02:17;101546.78;;;3.65;100.00
45050;BME280;61798;48.048;-1.928;2023-04-08T07:04:24;101476.47;;;3.49;100.00
45050;BME280;61798;48.048;-1.928;2023-04-08T07:06:32;101536.50;;;3.84;100.00
45050;BME280;61798;48.048;-1.928;2023-04-08T07:08:39;101519.03;;;3.81;100.00
45050;BME280;61798;48.048;-1.928;2023-04-08T07:10:46;101545.78;;;4.11;100.00
45050;BME280;61798;48.048;-1.928;2023-04-08T07:12:54;101540.63;;;4.09;100.00
45050;BME280;61798;48.048;-1.928;2023-04-08T07:15:01;101521.47;;;4.06;100.00
45050;BME280;61798;48.048;-1.928;2023-04-08T07:17:09;101539.03;;;4.40;100.00
45050;BME280;61798;48.048;-1.928;2023-04-08T07:19:17;101546.03;;;4.41;100.00
45050;BME280;61798;48.048;-1.928;2023-04-08T07:21:25;101541.88;;;4.48;100.00
45050;BME280;61798;48.048;-1.928;2023-04-08T07:23:31;101543.94;;;4.44;100.00
45050;BME280;61798;48.048;-1.928;2023-04-08T07:25:38;101528.53;;;4.60;100.00
45050;BME280;61798;48.048;-1.928;2023-04-08T07:27:45;101546.53;;;4.78;100.00
45050;BME280;61798;48.048;-1.928;2023-04-08T07:29:53;101551.66;;;4.69;100.00
45050;BME280;61798;48.048;-1.928;2023-04-08T07:32:00;101525.28;;;4.78;100.00
45050;BME280;61798;48.048;-1.928;2023-04-08T07:34:08;101531.97;;;4.82;100.00
45050;BME280;61798;48.048;-1.928;2023-04-08T07:36:15;101541.03;;;5.01;100.00
45050;BME280;61798;48.048;-1.928;2023-04-08T07:38:25;101538.06;;;4.94;100.00
45050;BME280;61798;48.048;-1.928;2023-04-08T07:40:32;101538.56;;;5.19;100.00
45050;BME280;61798;48.048;-1.928;2023-04-08T07:42:38;101508.84;;;4.94;100.00
45050;BME280;61798;48.048;-1.928;2023-04-08T07:44:44;101540.31;;;5.40;100.00
45050;BME280;61798;48.048;-1.928;2023-04-08T07:46:51;101526.03;;;5.31;100.00
45050;BME280;61798;48.048;-1.928;2023-04-08T07:48:57;101496.75;;;5.11;100.00
45050;BME280;61798;48.048;-1.928;2023-04-08T07:51:07;101513.41;;;5.23;100.00
45050;BME280;61798;48.048;-1.928;2023-04-08T07:53:13;101508.53;;;5.28;100.00
45050;BME280;61798;48.048;-1.928;2023-04-08T07:55:20;101525.78;;;5.54;100.00
45050;BME280;61798;48.048;-1.928;2023-04-08T07:57:26;101552.13;;;5.67;100.00
45050;BME280;61798;48.048;-1.928;2023-04-08T07:59:33;101557.47;;;5.97;100.00
45050;BME280;61798;48.048;-1.928;2023-04-08T08:01:44;101535.63;;;5.84;100.00
45050;BME280;61798;48.048;-1.928;2023-04-08T08:03:53;101548.81;;;5.95;100.00
45050;BME280;61798;48.048;-1.928;2023-04-08T08:06:00;101554.81;;;5.97;100.00
45050;BME280;61798;48.048;-1.928;2023-04-08T08:08:08;101536.38;;;6.16;100.00
45050;BME280;61798;48.048;-1.928;2023-04-08T08:10:17;101549.25;;;6.00;100.00
45050;BME280;61798;48.048;-1.928;2023-04-08T08:12:24;101558.91;;;6.21;100.00
45050;BME280;61798;48.048;-1.928;2023-04-08T08:14:30;101559.19;;;6.38;100.00
45050;BME280;61798;48.048;-1.928;2023-04-08T08:16:37;101566.03;;;6.51;100.00
45050;BME280;61798;48.048;-1.928;2023-04-08T08:18:45;101551.19;;;6.38;100.00
45050;BME280;61798;48.048;-1.928;2023-04-08T08:20:54;101563.63;;;6.58;100.00
45050;BME280;61798;48.048;-1.928;2023-04-08T08:23:01;101567.81;;;6.80;100.00
45050;BME280;61798;48.048;-1.928;2023-04-08T08:25:09;101556.63;;;6.66;100.00
45050;BME280;61798;48.048;-1.928;2023-04-08T08:27:16;101569.22;;;6.74;100.00
45050;BME280;61798;48.048;-1.928;2023-04-08T08:29:23;101554.19;;;6.83;100.00
45050;BME280;61798;48.048;-1.928;2023-04-08T08:31:30;101552.38;;;6.84;100.00
45050;BME280;61798;48.048;-1.928;2023-04-08T08:33:38;101549.63;;;7.04;100.00
45050;BME280;61798;48.048;-1.928;2023-04-08T08:35:45;101556.19;;;7.09;100.00
45050;BME280;61798;48.048;-1.928;2023-04-08T08:37:51;101536.13;;;7.15;100.00
45050;BME280;61798;48.048;-1.928;2023-04-08T08:39:58;101546.78;;;7.44;100.00
45050;BME280;61798;48.048;-1.928;2023-04-08T08:42:05;101558.00;;;7.47;100.00
45050;BME280;61798;48.048;-1.928;2023-04-08T08:44:14;101560.66;;;7.47;100.00
45050;BME280;61798;48.048;-1.928;2023-04-08T08:46:20;101545.53;;;7.38;100.00
45050;BME280;61798;48.048;-1.928;2023-04-08T08:48:26;101548.09;;;7.58;100.00
45050;BME280;61798;48.048;-1.928;2023-04-08T08:50:34;101561.28;;;7.59;100.00
45050;BME280;61798;48.048;-1.928;2023-04-08T08:52:51;101542.94;;;7.75;100.00
45050;BME280;61798;48.048;-1.928;2023-04-08T08:54:59;101551.72;;;8.03;100.00
45050;BME280;61798;48.048;-1.928;2023-04-08T08:57:19;101557.25;;;8.10;100.00
45050;BME280;61798;48.048;-1.928;2023-04-08T08:59:26;101540.25;;;7.93;100.00
45050;BME280;61798;48.048;-1.928;2023-04-08T09:01:37;101540.50;;;8.00;100.00
45050;BME280;61798;48.048;-1.928;2023-04-08T09:03:46;101524.91;;;8.13;100.00
45050;BME280;61798;48.048;-1.928;2023-04-08T09:05:59;101547.72;;;8.53;100.00
45050;BME280;61798;48.048;-1.928;2023-04-08T09:10:35;101529.47;;;8.40;100.00
45050;BME280;61798;48.048;-1.928;2023-04-08T09:12:54;101535.97;;;8.64;100.00
45050;BME280;61798;48.048;-1.928;2023-04-08T09:15:08;101552.00;;;8.91;100.00
45050;BME280;61798;48.048;-1.928;2023-04-08T09:17:33;101551.91;;;8.74;100.00
45050;BME280;61798;48.048;-1.928;2023-04-08T09:22:17;101558.56;;;9.05;100.00
45050;BME280;61798;48.048;-1.928;2023-04-08T09:24:28;101562.28;;;9.12;100.00
45050;BME280;61798;48.048;-1.928;2023-04-08T09:26:38;101552.84;;;8.91;100.00
45050;BME280;61798;48.048;-1.928;2023-04-08T09:29:05;101561.28;;;9.13;100.00
45050;BME280;61798;48.048;-1.928;2023-04-08T09:31:25;101559.22;;;9.34;100.00
45050;BME280;61798;48.048;-1.928;2023-04-08T09:33:33;101545.19;;;9.48;100.00
45050;BME280;61798;48.048;-1.928;2023-04-08T09:35:40;101551.22;;;9.42;100.00
45050;BME280;61798;48.048;-1.928;2023-04-08T09:37:48;101534.53;;;9.65;100.00
45050;BME280;61798;48.048;-1.928;2023-04-08T09:39:56;101535.91;;;9.78;100.00
45050;BME280;61798;48.048;-1.928;2023-04-08T09:42:04;101552.81;;;9.87;100.00
45050;BME280;61798;48.048;-1.928;2023-04-08T09:44:14;101551.28;;;9.84;100.00
45050;BME280;61798;48.048;-1.928;2023-04-08T09:46:32;101544.25;;;9.66;100.00
45050;BME280;61798;48.048;-1.928;2023-04-08T09:49:04;101547.44;;;9.78;100.00
45050;BME280;61798;48.048;-1.928;2023-04-08T09:51:15;101565.06;;;10.06;100.00
45050;BME280;61798;48.048;-1.928;2023-04-08T09:53:32;101555.31;;;9.97;100.00
45050;BME280;61798;48.048;-1.928;2023-04-08T09:55:42;101547.16;;;10.15;100.00
45050;BME280;61798;48.048;-1.928;2023-04-08T09:57:58;101536.09;;;10.10;100.00
45050;BME280;61798;48.048;-1.928;2023-04-08T10:00:12;101535.09;;;10.11;100.00
45050;BME280;61798;48.048;-1.928;2023-04-08T10:02:25;101552.47;;;10.32;100.00
45050;BME280;61798;48.048;-1.928;2023-04-08T10:04:36;101550.63;;;10.49;100.00
45050;BME280;61798;48.048;-1.928;2023-04-08T10:06:53;101511.63;;;10.38;100.00
45050;BME280;61798;48.048;-1.928;2023-04-08T10:09:01;101544.44;;;10.57;100.00
45050;BME280;61798;48.048;-1.928;2023-04-08T10:11:10;101533.38;;;10.43;100.00
45050;BME280;61798;48.048;-1.928;2023-04-08T10:13:19;101542.25;;;10.69;100.00
45050;BME280;61798;48.048;-1.928;2023-04-08T10:15:33;101537.38;;;10.64;100.00
45050;BME280;61798;48.048;-1.928;2023-04-08T10:17:40;101542.75;;;10.73;100.00
45050;BME280;61798;48.048;-1.928;2023-04-08T10:19:47;101537.03;;;10.67;100.00
45050;BME280;61798;48.048;-1.928;2023-04-08T10:21:55;101492.81;;;10.63;100.00
45050;BME280;61798;48.048;-1.928;2023-04-08T10:24:06;101542.84;;;10.88;100.00
45050;BME280;61798;48.048;-1.928;2023-04-08T10:26:30;101535.69;;;10.80;100.00
45050;BME280;61798;48.048;-1.928;2023-04-08T10:28:39;101518.59;;;10.73;100.00
45050;BME280;61798;48.048;-1.928;2023-04-08T10:30:55;101524.88;;;11.05;100.00
45050;BME280;61798;48.048;-1.928;2023-04-08T10:33:20;101511.91;;;11.17;100.00
45050;BME280;61798;48.048;-1.928;2023-04-08T10:35:38;101519.44;;;11.22;100.00
45050;BME280;61798;48.048;-1.928;2023-04-08T10:37:52;101515.00;;;11.38;100.00
45050;BME280;61798;48.048;-1.928;2023-04-08T10:39:59;101509.88;;;11.51;100.00
45050;BME280;61798;48.048;-1.928;2023-04-08T10:42:07;101501.69;;;11.68;100.00
45050;BME280;61798;48.048;-1.928;2023-04-08T10:44:24;101493.97;;;11.73;100.00
45050;BME280;61798;48.048;-1.928;2023-04-08T10:46:41;101495.75;;;11.58;100.00
45050;BME280;61798;48.048;-1.928;2023-04-08T10:48:59;101483.91;;;11.67;100.00
45050;BME280;61798;48.048;-1.928;2023-04-08T10:51:07;101462.44;;;11.67;100.00
45050;BME280;61798;48.048;-1.928;2023-04-08T10:53:14;101461.44;;;11.68;100.00
45050;BME280;61798;48.048;-1.928;2023-04-08T10:55:25;101476.28;;;11.56;100.00
45050;BME280;61798;48.048;-1.928;2023-04-08T10:57:32;101465.59;;;11.71;100.00
45050;BME280;61798;48.048;-1.928;2023-04-08T10:59:40;101472.09;;;11.77;100.00
45050;BME280;61798;48.048;-1.928;2023-04-08T11:01:47;101479.59;;;12.05;100.00
45050;BME280;61798;48.048;-1.928;2023-04-08T11:03:54;101464.75;;;12.33;100.00